createdAt,value
2023-01-17T00:02:06.823Z,3.03
2023-01-17T00:04:52.605Z,2.45
2023-01-17T00:07:40.306Z,2.60
2023-01-17T00:10:10.485Z,3.75
2023-01-17T00:12:40.066Z,2.75
2023-01-17T00:15:09.356Z,2.83
2023-01-17T00:17:37.232Z,3.60
2023-01-17T00:20:23.220Z,1.55
2023-01-17T00:23:08.488Z,6.20
2023-01-17T00:25:57.138Z,2.05
2023-01-17T00:28:26.635Z,2.92
2023-01-17T00:30:53.790Z,3.78
2023-01-17T00:33:22.106Z,2.83
2023-01-17T00:35:49.430Z,3.88
2023-01-17T00:38:17.952Z,2.92
2023-01-17T00:40:46.002Z,3.30
2023-01-17T00:43:33.403Z,2.22
2023-01-17T00:46:20.333Z,1.90
2023-01-17T00:49:05.449Z,2.45
2023-01-17T00:51:52.172Z,3.00
2023-01-17T00:54:38.092Z,4.93
2023-01-17T00:57:24.438Z,3.40
2023-01-17T01:00:10.003Z,3.33
2023-01-17T01:02:57.432Z,3.88
2023-01-17T01:05:43.059Z,3.22
2023-01-17T01:08:36.075Z,1.88
2023-01-17T01:11:24.211Z,5.40
2023-01-17T01:14:09.397Z,4.00
2023-01-17T01:16:54.759Z,2.25
2023-01-17T01:19:41.356Z,3.85
2023-01-17T01:22:26.470Z,2.42
2023-01-17T01:25:11.880Z,3.38
2023-01-17T01:27:57.193Z,3.15
2023-01-17T01:30:42.420Z,3.35
2023-01-17T01:33:18.851Z,3.63
2023-01-17T01:35:49.544Z,4.63
2023-01-17T01:38:18.003Z,2.38
2023-01-17T01:40:47.731Z,1.95
2023-01-17T01:43:17.798Z,3.17
2023-01-17T01:45:50.714Z,4.10
2023-01-17T01:48:31.258Z,2.53
2023-01-17T01:51:02.355Z,2.72
2023-01-17T01:53:32.650Z,2.63
2023-01-17T01:56:00.650Z,5.88
2023-01-17T01:58:33.129Z,6.35
2023-01-17T02:01:01.098Z,2.87
2023-01-17T02:03:32.884Z,2.85
2023-01-17T02:06:13.199Z,6.85
2023-01-17T02:08:42.325Z,3.42
2023-01-17T02:11:10.608Z,3.53
2023-01-17T02:13:38.482Z,3.13
2023-01-17T02:16:15.196Z,3.22
2023-01-17T02:18:57.298Z,2.88
2023-01-17T02:21:31.251Z,6.80
2023-01-17T02:24:31.100Z,2.80
2023-01-17T02:27:04.156Z,2.33
2023-01-17T02:30:08.711Z,4.10
2023-01-17T02:32:48.034Z,3.10
2023-01-17T02:35:28.136Z,3.80
2023-01-17T02:38:04.296Z,3.58
2023-01-17T02:40:39.429Z,3.08
2023-01-17T02:43:11.752Z,4.10
2023-01-17T02:45:39.754Z,3.27
2023-01-17T02:48:11.973Z,2.08
2023-01-17T02:50:58.579Z,3.20
2023-01-17T02:53:40.413Z,2.90
2023-01-17T02:56:20.793Z,3.55
2023-01-17T02:59:06.695Z,4.53
2023-01-17T03:01:43.962Z,4.30
2023-01-17T03:04:18.075Z,5.35
2023-01-17T03:06:53.125Z,2.75
2023-01-17T03:09:22.288Z,4.97
2023-01-17T03:11:50.427Z,3.40
2023-01-17T03:14:18.477Z,3.42
2023-01-17T03:16:47.287Z,4.93
2023-01-17T03:19:16.687Z,4.55
2023-01-17T03:21:44.665Z,2.90
2023-01-17T03:24:12.697Z,3.30
2023-01-17T03:26:40.741Z,1.85
2023-01-17T03:29:08.745Z,2.80
2023-01-17T03:31:36.837Z,1.65
2023-01-17T03:34:04.932Z,2.00
2023-01-17T03:36:34.373Z,2.17
2023-01-17T03:39:03.023Z,3.00
2023-01-17T03:41:31.105Z,2.00
2023-01-17T03:43:59.072Z,2.63
2023-01-17T03:46:28.619Z,1.25
2023-01-17T03:48:56.733Z,1.58
2023-01-17T03:51:24.885Z,1.55
2023-01-17T03:53:54.600Z,3.17
2023-01-17T03:56:22.604Z,3.00
2023-01-17T03:58:51.544Z,1.67
2023-01-17T04:01:20.036Z,1.00
2023-01-17T04:03:48.119Z,1.90
2023-01-17T04:06:16.269Z,3.78
2023-01-17T04:08:44.399Z,1.33
2023-01-17T04:11:13.704Z,1.20
2023-01-17T04:13:41.650Z,1.88
2023-01-17T04:16:14.311Z,1.00
2023-01-17T04:18:42.368Z,2.67
2023-01-17T04:21:10.327Z,1.98
2023-01-17T04:23:38.439Z,1.40
2023-01-17T04:26:06.578Z,0.90
2023-01-17T04:28:35.834Z,2.45
2023-01-17T04:31:03.845Z,2.38
2023-01-17T04:33:31.961Z,1.42
2023-01-17T04:36:00.123Z,1.75
2023-01-17T04:38:28.156Z,1.80
2023-01-17T04:40:56.164Z,0.80
2023-01-17T04:43:24.163Z,1.40
2023-01-17T04:45:57.480Z,0.85
2023-01-17T04:48:26.168Z,0.40
2023-01-17T04:51:00.923Z,1.10
2023-01-17T04:53:29.023Z,0.70
2023-01-17T04:55:57.111Z,1.27
2023-01-17T04:58:25.218Z,1.23
2023-01-17T05:00:53.209Z,0.43
2023-01-17T05:03:24.081Z,1.00
2023-01-17T05:05:52.185Z,0.90
2023-01-17T05:08:20.068Z,1.65
2023-01-17T05:10:48.332Z,0.95
2023-01-17T05:13:16.481Z,0.75
2023-01-17T05:15:44.806Z,1.05
2023-01-17T05:18:13.822Z,0.57
2023-01-17T05:20:43.217Z,0.68
2023-01-17T05:23:12.027Z,0.50
2023-01-17T05:25:44.529Z,1.88
2023-01-17T05:28:13.244Z,0.68
2023-01-17T05:30:41.613Z,0.82
2023-01-17T05:33:10.279Z,1.40
2023-01-17T05:35:38.573Z,0.80
2023-01-17T05:38:07.811Z,1.00
2023-01-17T05:40:35.731Z,0.90
2023-01-17T05:43:04.602Z,0.90
2023-01-17T05:45:34.159Z,1.45
2023-01-17T05:48:02.831Z,0.80
2023-01-17T05:50:33.400Z,1.05
2023-01-17T05:53:03.394Z,0.85
2023-01-17T05:55:33.748Z,1.48
2023-01-17T05:58:02.331Z,2.38
2023-01-17T06:00:30.792Z,2.25
2023-01-17T06:03:00.902Z,0.98
2023-01-17T06:05:30.123Z,0.80
2023-01-17T06:07:58.338Z,1.77
2023-01-17T06:10:26.820Z,0.80
2023-01-17T06:13:04.761Z,4.07
2023-01-17T06:15:32.961Z,1.10
2023-01-17T06:18:05.873Z,0.77
2023-01-17T06:20:34.567Z,1.23
2023-01-17T06:23:04.378Z,0.80
2023-01-17T06:25:36.687Z,0.80
2023-01-17T06:28:06.771Z,1.20
2023-01-17T06:30:35.007Z,1.27
2023-01-17T06:33:03.030Z,1.83
2023-01-17T06:35:31.039Z,1.85
2023-01-17T06:38:00.412Z,1.33
2023-01-17T06:40:29.232Z,2.08
2023-01-17T06:43:01.588Z,2.80
2023-01-17T06:45:31.565Z,2.50
2023-01-17T06:48:00.665Z,1.63
2023-01-17T06:50:28.592Z,1.48
2023-01-17T06:52:57.575Z,0.98
2023-01-17T06:55:28.741Z,1.13
2023-01-17T06:57:56.969Z,1.20
2023-01-17T07:00:25.258Z,1.10
2023-01-17T07:02:54.775Z,1.27
2023-01-17T07:05:23.230Z,3.40
2023-01-17T07:07:51.125Z,1.98
2023-01-17T07:10:19.314Z,1.98
2023-01-17T07:12:47.535Z,2.50
2023-01-17T07:15:15.549Z,1.13
2023-01-17T07:17:43.451Z,2.05
2023-01-17T07:20:13.507Z,1.70
2023-01-17T07:22:45.300Z,2.22
2023-01-17T07:25:13.263Z,2.22
2023-01-17T07:27:41.126Z,2.13
2023-01-17T07:30:10.659Z,1.88
2023-01-17T07:32:38.817Z,1.52
2023-01-17T07:35:07.901Z,3.40
2023-01-17T07:37:37.116Z,2.17
2023-01-17T07:40:05.757Z,2.83
2023-01-17T07:42:33.658Z,1.98
2023-01-17T07:45:02.167Z,2.03
2023-01-17T07:47:30.562Z,3.58
2023-01-17T07:49:58.468Z,2.88
2023-01-17T07:52:26.351Z,2.47
2023-01-17T07:54:55.683Z,2.15
2023-01-17T07:57:23.684Z,3.00
2023-01-17T07:59:52.313Z,2.15
2023-01-17T08:02:22.242Z,2.13
2023-01-17T08:04:50.741Z,2.33
2023-01-17T08:07:18.706Z,1.77
2023-01-17T08:09:49.679Z,3.63
2023-01-17T08:12:19.113Z,1.40
2023-01-17T08:14:47.045Z,1.77
2023-01-17T08:17:17.067Z,3.85
2023-01-17T08:19:45.251Z,2.28
2023-01-17T08:22:13.241Z,3.33
2023-01-17T08:24:41.909Z,3.10
2023-01-17T08:27:10.029Z,2.50
2023-01-17T08:29:42.143Z,1.38
2023-01-17T08:32:10.070Z,2.58
2023-01-17T08:34:38.038Z,3.13
2023-01-17T08:37:05.932Z,2.22
2023-01-17T08:39:33.928Z,2.78
2023-01-17T08:42:01.791Z,2.58
2023-01-17T08:44:29.740Z,2.45
2023-01-17T08:46:59.199Z,1.25
2023-01-17T08:49:29.548Z,2.10
2023-01-17T08:51:57.687Z,1.10
2023-01-17T08:54:25.604Z,2.25
2023-01-17T08:56:55.579Z,2.13
2023-01-17T08:59:23.811Z,3.33
2023-01-17T09:01:52.537Z,3.10
2023-01-17T09:04:22.227Z,3.45
2023-01-17T09:06:50.149Z,3.13
2023-01-17T09:09:18.705Z,3.33
2023-01-17T09:11:46.573Z,2.38
2023-01-17T09:14:15.547Z,5.28
2023-01-17T09:16:43.563Z,1.60
2023-01-17T09:19:11.508Z,1.40
2023-01-17T09:21:40.773Z,2.65
2023-01-17T09:24:08.803Z,6.57
2023-01-17T09:26:36.828Z,1.23
2023-01-17T09:29:05.057Z,1.77
2023-01-17T09:31:32.975Z,0.63
2023-01-17T09:34:00.876Z,0.57
2023-01-17T09:36:31.900Z,0.90
2023-01-17T09:39:02.071Z,2.63
2023-01-17T09:41:33.346Z,2.60
2023-01-17T09:44:07.339Z,3.25
2023-01-17T09:46:40.625Z,0.65
2023-01-17T09:51:37.988Z,1.20
2023-01-17T09:54:07.290Z,0.80
2023-01-17T09:56:42.327Z,1.00
2023-01-17T09:59:33.251Z,1.23
2023-01-17T10:02:19.658Z,0.75
2023-01-17T10:05:07.684Z,0.90
2023-01-17T10:07:46.318Z,1.00
2023-01-17T10:10:30.444Z,0.55
2023-01-17T10:13:05.082Z,1.85
2023-01-17T10:15:54.663Z,1.83
2023-01-17T10:18:44.133Z,0.75
2023-01-17T10:21:22.229Z,0.88
2023-01-17T10:24:31.786Z,2.95
2023-01-17T10:27:03.988Z,1.38
2023-01-17T10:29:36.525Z,2.25
2023-01-17T10:32:04.859Z,1.63
2023-01-17T10:34:38.410Z,0.25
2023-01-17T10:37:20.988Z,1.25
2023-01-17T10:39:51.087Z,4.35
2023-01-17T10:42:24.840Z,1.15
2023-01-17T10:45:00.951Z,1.92
2023-01-17T10:47:33.669Z,1.63
2023-01-17T10:50:05.155Z,1.23
2023-01-17T10:52:43.349Z,0.70
2023-01-17T10:55:28.024Z,0.70
2023-01-17T10:57:58.924Z,0.40
2023-01-17T11:00:35.491Z,2.00
2023-01-17T11:03:03.823Z,0.52
2023-01-17T11:05:33.764Z,1.70
2023-01-17T11:08:03.937Z,1.38
2023-01-17T11:10:41.525Z,0.88
2023-01-17T11:13:23.805Z,0.73
2023-01-17T11:15:57.598Z,2.35
2023-01-17T11:18:29.188Z,0.40
2023-01-17T11:21:12.234Z,2.25
2023-01-17T11:23:42.859Z,2.28
2023-01-17T11:26:13.823Z,1.83
2023-01-17T11:28:43.368Z,1.77
2023-01-17T11:31:26.824Z,2.42
2023-01-17T11:36:43.352Z,1.48
2023-01-17T11:39:27.435Z,1.27
2023-01-17T11:41:55.677Z,3.63
2023-01-17T11:44:27.381Z,1.30
2023-01-17T11:47:10.557Z,3.97
2023-01-17T11:49:39.376Z,1.40
2023-01-17T11:52:10.441Z,3.13
2023-01-17T11:54:42.376Z,2.75
2023-01-17T11:57:22.001Z,1.65
2023-01-17T11:59:53.412Z,2.28
2023-01-17T12:02:42.216Z,3.17
2023-01-17T12:05:30.362Z,4.65
2023-01-17T12:08:07.882Z,3.33
2023-01-17T12:10:46.257Z,2.67
2023-01-17T12:13:42.586Z,2.47
2023-01-17T12:16:33.181Z,2.15
2023-01-17T12:19:34.737Z,1.17
2023-01-17T12:22:17.543Z,1.23
2023-01-17T12:25:14.849Z,1.67
2023-01-17T12:27:54.337Z,1.33
2023-01-17T12:30:39.158Z,5.55
2023-01-17T12:33:21.111Z,2.05
2023-01-17T12:35:53.084Z,2.60
2023-01-17T12:38:32.559Z,5.40
2023-01-17T12:41:06.352Z,1.52
2023-01-17T12:46:12.513Z,2.38
2023-01-17T12:48:42.173Z,3.65
2023-01-17T12:51:16.552Z,1.55
2023-01-17T12:53:50.983Z,2.45
2023-01-17T12:56:25.887Z,1.67
2023-01-17T12:58:56.960Z,2.60
2023-01-17T13:01:30.475Z,3.80
2023-01-17T13:04:17.726Z,3.15
2023-01-17T13:06:56.006Z,5.80
2023-01-17T13:09:24.979Z,1.20
2023-01-17T13:11:58.211Z,1.95
2023-01-17T13:16:58.854Z,7.63
2023-01-17T13:19:39.070Z,5.47
2023-01-17T13:22:17.309Z,2.53
2023-01-17T13:24:55.744Z,3.38
2023-01-17T13:27:38.517Z,3.08
2023-01-17T13:30:30.758Z,3.67
2023-01-17T13:33:19.730Z,2.70
2023-01-17T13:35:58.188Z,2.58
2023-01-17T13:38:43.656Z,1.98
2023-01-17T13:41:28.161Z,3.85
2023-01-17T13:44:13.752Z,4.15
2023-01-17T13:47:00.677Z,3.40
2023-01-17T13:49:47.585Z,5.55
2023-01-17T13:52:35.942Z,2.83
2023-01-17T13:55:07.224Z,4.47
2023-01-17T13:57:46.702Z,3.85
2023-01-17T14:00:59.150Z,1.95
2023-01-17T14:04:03.549Z,3.85
2023-01-17T14:06:37.370Z,7.68
2023-01-17T14:09:17.632Z,2.90
2023-01-17T14:11:55.063Z,5.03
2023-01-17T14:14:49.771Z,4.57
2023-01-17T14:17:42.566Z,8.20
2023-01-17T14:20:51.079Z,2.50
2023-01-17T14:23:26.287Z,4.35
2023-01-17T14:25:59.256Z,6.95
2023-01-17T14:28:32.692Z,2.70
2023-01-17T14:31:03.340Z,5.82
2023-01-17T14:33:35.650Z,6.00
2023-01-17T14:36:06.268Z,3.58
2023-01-17T14:38:41.955Z,5.80
2023-01-17T14:41:16.478Z,5.85
2023-01-17T14:43:45.371Z,7.47
2023-01-17T14:46:19.926Z,5.95
2023-01-17T14:48:48.621Z,1.77
2023-01-17T14:51:21.292Z,8.15
2023-01-17T14:53:56.719Z,5.97
2023-01-17T14:56:27.935Z,4.07
2023-01-17T14:59:07.203Z,12.15
2023-01-17T15:01:36.571Z,8.57
2023-01-17T15:04:04.968Z,5.30
2023-01-17T15:06:39.355Z,5.18
2023-01-17T15:09:11.872Z,3.35
2023-01-17T15:11:42.193Z,3.00
2023-01-17T15:14:19.817Z,3.72
2023-01-17T15:16:47.966Z,4.15
2023-01-17T15:19:16.477Z,3.03
2023-01-17T15:21:46.781Z,3.10
2023-01-17T15:24:19.982Z,7.65
2023-01-17T15:26:50.123Z,6.60
2023-01-17T15:29:25.231Z,3.55
2023-01-17T15:31:55.112Z,3.85
2023-01-17T15:34:28.610Z,6.30
2023-01-17T15:36:58.569Z,6.45
2023-01-17T15:39:30.192Z,6.80
2023-01-17T15:42:01.679Z,8.38
2023-01-17T15:44:50.292Z,2.97
2023-01-17T15:47:28.816Z,4.53
2023-01-17T15:49:56.732Z,6.07
2023-01-17T15:52:24.644Z,6.22
2023-01-17T15:54:54.571Z,6.03
2023-01-17T15:57:28.306Z,4.20
2023-01-17T15:59:59.529Z,5.00
2023-01-17T16:02:33.132Z,10.65
2023-01-17T16:05:02.425Z,4.40
2023-01-17T16:07:34.068Z,6.07
2023-01-17T16:10:14.800Z,2.33
2023-01-17T16:12:44.193Z,5.97
2023-01-17T16:15:13.514Z,3.75
2023-01-17T16:17:44.626Z,5.43
2023-01-17T16:20:19.703Z,6.05
2023-01-17T16:22:48.359Z,4.07
2023-01-17T16:25:18.819Z,9.45
2023-01-17T16:27:48.556Z,7.57
2023-01-17T16:30:19.258Z,9.38
2023-01-17T16:32:48.707Z,3.90
2023-01-17T16:35:20.765Z,6.28
2023-01-17T16:37:50.407Z,8.95
2023-01-17T16:40:19.071Z,8.93
2023-01-17T16:42:48.636Z,7.63
2023-01-17T16:45:17.591Z,4.90
2023-01-17T16:47:47.363Z,9.60
2023-01-17T16:50:17.941Z,8.93
2023-01-17T16:52:45.841Z,7.43
2023-01-17T16:55:16.004Z,5.22
2023-01-17T16:57:43.985Z,9.20
2023-01-17T17:00:14.622Z,6.22
2023-01-17T17:02:42.588Z,5.32
2023-01-17T17:05:11.537Z,5.80
2023-01-17T17:07:42.859Z,6.47
2023-01-17T17:10:11.714Z,4.70
2023-01-17T17:12:39.540Z,5.75
2023-01-17T17:15:08.458Z,5.72
2023-01-17T17:17:38.040Z,5.18
2023-01-17T17:20:07.518Z,7.85
2023-01-17T17:22:35.401Z,2.75
2023-01-17T17:25:05.251Z,7.43
2023-01-17T17:27:33.321Z,5.80
2023-01-17T17:30:01.270Z,7.55
2023-01-17T17:32:29.301Z,5.25
2023-01-17T17:34:58.541Z,8.07
2023-01-17T17:37:28.969Z,8.55
2023-01-17T17:39:57.037Z,7.25
2023-01-17T17:42:25.630Z,7.32
2023-01-17T17:44:53.643Z,12.70
2023-01-17T17:47:21.526Z,10.82
2023-01-17T17:49:49.440Z,5.20
2023-01-17T17:52:19.064Z,10.90
2023-01-17T17:54:46.903Z,4.15
2023-01-17T17:57:15.138Z,5.70
2023-01-17T17:59:43.091Z,5.00
2023-01-17T18:02:12.128Z,9.50
2023-01-17T18:04:40.131Z,7.82
2023-01-17T18:07:08.264Z,6.53
2023-01-17T18:09:39.313Z,7.65
2023-01-17T18:12:07.885Z,10.30
2023-01-17T18:14:36.283Z,10.27
2023-01-17T18:17:04.633Z,3.10
2023-01-17T18:19:32.634Z,6.40
2023-01-17T18:22:01.070Z,5.03
2023-01-17T18:24:29.456Z,8.68
2023-01-17T18:26:59.140Z,4.55
2023-01-17T18:29:29.197Z,6.40
2023-01-17T18:31:57.207Z,7.95
2023-01-17T18:34:29.235Z,5.35
2023-01-17T18:36:58.941Z,6.50
2023-01-17T18:39:28.161Z,3.42
2023-01-17T18:41:57.163Z,6.18
2023-01-17T18:44:27.745Z,9.07
2023-01-17T18:46:58.114Z,6.97
2023-01-17T18:49:26.132Z,6.30
2023-01-17T18:51:54.017Z,5.47
2023-01-17T18:54:21.938Z,5.88
2023-01-17T18:56:51.048Z,7.85
2023-01-17T18:59:19.664Z,10.55
2023-01-17T19:01:48.993Z,7.35
2023-01-17T19:04:17.889Z,6.97
2023-01-17T19:06:47.936Z,6.38
2023-01-17T19:09:17.075Z,11.77
2023-01-17T19:11:46.234Z,8.13
2023-01-17T19:14:14.544Z,9.82
2023-01-17T19:16:43.118Z,10.93
2023-01-17T19:19:14.414Z,7.72
2023-01-17T19:21:42.600Z,8.70
2023-01-17T19:24:13.038Z,7.57
2023-01-17T19:26:41.310Z,8.63
2023-01-17T19:29:09.122Z,8.15
2023-01-17T19:31:42.311Z,14.80
2023-01-17T19:34:13.767Z,8.75
2023-01-17T19:36:42.120Z,11.02
2023-01-17T19:39:10.491Z,9.68
2023-01-17T19:41:42.097Z,9.82
2023-01-17T19:44:11.979Z,10.77
2023-01-17T19:46:40.007Z,13.38
2023-01-17T19:49:09.794Z,10.18
2023-01-17T19:51:39.662Z,12.98
2023-01-17T19:54:08.400Z,11.27
2023-01-17T19:56:36.753Z,12.57
2023-01-17T19:59:04.844Z,13.90
2023-01-17T20:01:35.225Z,12.25
2023-01-17T20:04:04.658Z,13.55
2023-01-17T20:06:34.534Z,15.40
2023-01-17T20:09:04.588Z,18.85
2023-01-17T20:11:33.105Z,12.05
2023-01-17T20:14:01.181Z,21.45
2023-01-17T20:16:31.616Z,14.40
2023-01-17T20:19:00.202Z,15.75
2023-01-17T20:21:30.548Z,10.23
2023-01-17T20:24:00.492Z,16.90
2023-01-17T20:26:34.955Z,14.88
2023-01-17T20:29:06.771Z,24.65
2023-01-17T20:31:38.107Z,17.27
2023-01-17T20:34:08.082Z,14.13
2023-01-17T20:36:37.009Z,19.08
2023-01-17T20:39:05.865Z,18.95
2023-01-17T20:41:37.297Z,12.70
2023-01-17T20:44:06.851Z,13.25
2023-01-17T20:46:40.405Z,15.18
2023-01-17T20:49:13.320Z,20.40
2023-01-17T20:51:42.061Z,10.82
2023-01-17T20:54:14.229Z,14.43
2023-01-17T20:56:46.708Z,12.70
2023-01-17T20:59:17.081Z,14.73
2023-01-17T21:01:45.582Z,12.35
2023-01-17T21:04:14.730Z,14.93
2023-01-17T21:06:43.743Z,13.73
2023-01-17T21:09:14.135Z,22.95
2023-01-17T21:11:43.517Z,15.50
2023-01-17T21:14:11.422Z,15.88
2023-01-17T21:16:39.495Z,13.23
2023-01-17T21:19:09.189Z,14.45
2023-01-17T21:21:37.119Z,15.30
2023-01-17T21:24:05.899Z,21.02
2023-01-17T21:26:33.738Z,18.17
2023-01-17T21:29:03.641Z,18.65
2023-01-17T21:31:34.734Z,14.30
2023-01-17T21:34:04.784Z,14.63
2023-01-17T21:36:34.724Z,12.68
2023-01-17T21:39:05.383Z,14.30
2023-01-17T21:41:35.081Z,15.63
2023-01-17T21:44:07.877Z,17.83
2023-01-17T21:46:38.326Z,12.80
2023-01-17T21:49:06.299Z,16.20
2023-01-17T21:51:52.990Z,15.23
2023-01-17T21:54:40.889Z,18.13
2023-01-17T21:57:26.308Z,18.60
2023-01-17T21:59:55.584Z,20.27
2023-01-17T22:02:23.923Z,17.20
2023-01-17T22:04:51.880Z,17.15
2023-01-17T22:07:19.789Z,15.68
2023-01-17T22:09:47.663Z,24.45
2023-01-17T22:12:15.525Z,10.48
2023-01-17T22:14:43.380Z,14.00
2023-01-17T22:17:12.576Z,16.88
2023-01-17T22:19:40.537Z,20.27
2023-01-17T22:22:08.441Z,18.17
2023-01-17T22:24:36.285Z,16.35
2023-01-17T22:27:04.236Z,13.75
2023-01-17T22:29:33.957Z,18.23
2023-01-17T22:32:01.920Z,20.13
2023-01-17T22:34:31.164Z,18.20
2023-01-17T22:36:59.086Z,12.95
2023-01-17T22:39:26.962Z,22.58
2023-01-17T22:41:54.848Z,16.13
2023-01-17T22:44:22.751Z,17.92
2023-01-17T22:46:50.628Z,18.15
2023-01-17T22:49:23.284Z,15.88
2023-01-17T22:51:52.641Z,14.85
2023-01-17T22:54:20.508Z,20.10
2023-01-17T22:56:48.603Z,17.63
2023-01-17T22:59:16.651Z,15.93
2023-01-17T23:01:44.575Z,18.08
2023-01-17T23:04:16.020Z,15.23
2023-01-17T23:06:44.483Z,16.92
2023-01-17T23:09:15.541Z,17.73
2023-01-17T23:11:46.727Z,20.08
2023-01-17T23:14:17.628Z,17.80
2023-01-17T23:17:05.137Z,15.25
2023-01-17T23:19:35.796Z,18.35
2023-01-17T23:22:19.172Z,14.65
2023-01-17T23:24:51.120Z,18.08
2023-01-17T23:27:39.095Z,15.57
2023-01-17T23:30:10.775Z,17.20
2023-01-17T23:32:38.964Z,17.05
2023-01-17T23:35:07.793Z,14.57
2023-01-17T23:37:52.884Z,15.70
2023-01-17T23:40:22.354Z,17.40
2023-01-17T23:43:07.504Z,14.15
2023-01-17T23:45:36.845Z,10.80
2023-01-17T23:48:09.282Z,15.27
2023-01-17T23:50:37.866Z,12.20
2023-01-17T23:53:07.960Z,18.85
2023-01-17T23:55:39.316Z,15.77
2023-01-17T23:58:08.550Z,15.90
